createdAt,value
2019-05-25T00:02:54.180Z,2.90
2019-05-25T00:08:05.026Z,3.00
2019-05-25T00:13:20.585Z,3.40
2019-05-25T00:18:47.113Z,3.50
2019-05-25T00:24:11.762Z,3.05
2019-05-25T00:29:20.477Z,3.15
2019-05-25T00:34:51.936Z,3.00
2019-05-25T00:40:18.066Z,3.37
2019-05-25T00:45:51.680Z,3.10
2019-05-25T00:51:12.853Z,2.80
2019-05-25T00:56:34.374Z,3.30
2019-05-25T01:02:40.124Z,3.17
2019-05-25T01:14:01.529Z,3.33
2019-05-25T01:19:31.890Z,3.22
2019-05-25T01:25:14.145Z,3.70
2019-05-25T01:30:30.663Z,3.47
2019-05-25T01:35:47.182Z,3.67
2019-05-25T01:41:25.111Z,3.52
2019-05-25T01:46:41.738Z,3.65
2019-05-25T01:52:08.539Z,3.65
2019-05-25T01:57:25.560Z,4.03
2019-05-25T02:02:42.021Z,3.58
2019-05-25T02:08:07.671Z,3.70
2019-05-25T02:13:22.115Z,3.80
2019-05-25T02:30:43.058Z,4.15
2019-05-25T02:36:01.955Z,4.10
2019-05-25T02:41:46.832Z,4.35
2019-05-25T02:47:05.419Z,4.80
2019-05-25T02:52:39.473Z,4.67
2019-05-25T02:57:48.893Z,4.37
2019-05-25T03:03:12.456Z,4.75
2019-05-25T03:08:37.428Z,4.87
2019-05-25T03:14:06.485Z,4.85
2019-05-25T03:19:20.021Z,5.22
2019-05-25T03:24:34.491Z,4.92
2019-05-25T03:30:02.254Z,5.03
2019-05-25T03:35:16.859Z,5.55
2019-05-25T03:40:37.693Z,5.00
2019-05-25T03:46:15.508Z,5.25
2019-05-25T03:51:54.776Z,5.72
2019-05-25T03:57:12.338Z,7.12
2019-05-25T04:02:32.260Z,5.40
2019-05-25T04:08:07.196Z,4.75
2019-05-25T04:13:24.600Z,4.90
2019-05-25T04:19:01.203Z,4.47
2019-05-25T04:24:26.018Z,5.03
2019-05-25T04:29:42.536Z,4.75
2019-05-25T04:35:02.416Z,4.75
2019-05-25T04:40:18.586Z,4.95
2019-05-25T04:45:33.827Z,5.50
2019-05-25T04:50:58.080Z,5.10
2019-05-25T04:56:29.724Z,6.05
2019-05-25T05:01:41.584Z,4.50
2019-05-25T05:06:59.946Z,6.47
2019-05-25T05:12:20.029Z,4.65
2019-05-25T05:17:53.115Z,7.20
2019-05-25T05:23:10.814Z,5.72
2019-05-25T05:28:41.086Z,5.30
2019-05-25T05:33:52.379Z,5.45
2019-05-25T05:39:09.631Z,5.85
2019-05-25T05:44:26.993Z,5.90
2019-05-25T05:49:46.317Z,4.53
2019-05-25T05:55:12.756Z,5.50
2019-05-25T06:00:20.714Z,6.00
2019-05-25T06:05:29.267Z,6.15
2019-05-25T06:10:35.105Z,6.37
2019-05-25T06:15:40.744Z,6.15
2019-05-25T06:21:01.275Z,7.40
2019-05-25T06:26:28.277Z,6.80
2019-05-25T06:31:49.839Z,7.15
2019-05-25T06:37:26.189Z,7.37
2019-05-25T06:42:46.773Z,8.30
2019-05-25T06:48:07.576Z,8.20
2019-05-25T06:53:22.415Z,7.35
2019-05-25T06:58:44.281Z,8.38
2019-05-25T07:03:56.155Z,7.50
2019-05-25T07:09:14.933Z,6.55
2019-05-25T07:15:03.129Z,6.83
2019-05-25T07:20:19.192Z,7.35
2019-05-25T07:25:36.601Z,7.60
2019-05-25T07:31:14.434Z,8.23
2019-05-25T07:36:37.610Z,7.92
2019-05-25T07:41:52.221Z,7.28
2019-05-25T07:47:19.255Z,8.55
2019-05-25T07:52:43.357Z,8.58
2019-05-25T07:58:15.587Z,8.30
2019-05-25T08:03:28.531Z,9.35
2019-05-25T08:08:40.261Z,9.05
2019-05-25T08:14:06.479Z,8.48
2019-05-25T08:19:40.305Z,7.67
2019-05-25T08:24:57.120Z,9.43
2019-05-25T08:30:35.869Z,8.50
2019-05-25T08:35:53.014Z,8.83
2019-05-25T08:41:32.622Z,8.38
2019-05-25T08:46:46.641Z,8.63
2019-05-25T08:52:23.375Z,9.20
2019-05-25T08:57:49.814Z,8.98
2019-05-25T09:03:12.073Z,11.90
2019-05-25T09:08:29.408Z,10.95
2019-05-25T09:14:26.059Z,11.45
2019-05-25T09:19:46.067Z,9.60
2019-05-25T09:25:05.165Z,10.03
2019-05-25T09:30:22.513Z,9.18
2019-05-25T09:35:57.513Z,8.98
2019-05-25T09:41:16.681Z,8.80
2019-05-25T09:46:32.829Z,8.25
2019-05-25T09:57:41.582Z,8.55
2019-05-25T10:03:16.851Z,8.55
2019-05-25T10:08:39.970Z,8.75
2019-05-25T10:13:50.047Z,8.33
2019-05-25T10:19:04.070Z,9.25
2019-05-25T10:24:28.398Z,8.08
2019-05-25T10:30:02.184Z,10.28
2019-05-25T10:35:22.713Z,8.38
2019-05-25T10:40:40.886Z,8.95
2019-05-25T10:45:53.889Z,8.75
2019-05-25T10:51:06.020Z,8.83
2019-05-25T10:56:35.788Z,9.18
2019-05-25T11:02:09.627Z,8.40
2019-05-25T11:07:22.451Z,8.00
2019-05-25T11:13:02.210Z,8.98
2019-05-25T11:18:33.809Z,8.30
2019-05-25T11:23:55.657Z,8.28
2019-05-25T11:29:36.061Z,7.72
2019-05-25T11:35:05.132Z,8.75
2019-05-25T11:40:15.306Z,8.90
2019-05-25T11:45:33.456Z,7.83
2019-05-25T11:50:51.257Z,6.20
2019-05-25T11:56:12.598Z,6.37
2019-05-25T12:01:33.805Z,4.62
2019-05-25T12:07:01.362Z,5.30
2019-05-25T12:12:40.357Z,6.25
2019-05-25T12:18:10.061Z,5.37
2019-05-25T12:23:37.933Z,6.20
2019-05-25T12:28:49.249Z,5.55
2019-05-25T12:34:32.163Z,6.75
2019-05-25T12:39:48.892Z,5.80
2019-05-25T12:45:16.433Z,6.95
2019-05-25T12:50:58.712Z,6.50
2019-05-25T12:56:44.844Z,2.10
2019-05-25T13:01:43.860Z,2.08
2019-05-25T13:07:07.190Z,1.92
2019-05-25T13:12:27.315Z,1.90
2019-05-25T13:17:43.912Z,1.80
2019-05-25T13:23:14.937Z,2.27
2019-05-25T13:28:31.916Z,2.25
2019-05-25T13:33:46.098Z,2.00
2019-05-25T13:39:01.918Z,2.30
2019-05-25T13:44:13.894Z,2.47
2019-05-25T13:49:35.638Z,2.45
2019-05-25T13:55:07.105Z,2.35
2019-05-25T14:00:19.661Z,2.45
2019-05-25T14:05:44.865Z,2.62
2019-05-25T14:11:10.095Z,2.90
2019-05-25T14:16:47.425Z,2.75
2019-05-25T14:22:05.916Z,3.00
2019-05-25T14:27:22.567Z,3.02
2019-05-25T14:32:43.746Z,2.72
2019-05-25T14:38:09.027Z,2.67
2019-05-25T14:43:32.367Z,2.40
2019-05-25T14:48:51.230Z,2.47
2019-05-25T14:54:11.004Z,2.45
2019-05-25T14:59:32.163Z,2.67
2019-05-25T15:05:07.611Z,3.17
2019-05-25T15:10:43.568Z,3.25
2019-05-25T15:15:54.342Z,3.10
2019-05-25T15:21:12.765Z,3.40
2019-05-25T15:26:47.746Z,2.92
2019-05-25T15:32:20.648Z,3.27
2019-05-25T15:37:46.245Z,3.95
2019-05-25T15:43:21.049Z,4.42
2019-05-25T15:48:31.740Z,3.75
2019-05-25T15:53:45.914Z,3.33
2019-05-25T15:59:23.930Z,3.00
2019-05-25T16:04:44.373Z,3.58
2019-05-25T16:10:16.216Z,3.02
2019-05-25T16:15:39.181Z,3.12
2019-05-25T16:20:52.144Z,3.70
2019-05-25T16:26:23.788Z,4.25
2019-05-25T16:31:58.117Z,4.17
2019-05-25T16:37:12.440Z,4.67
2019-05-25T16:42:55.731Z,4.60
2019-05-25T16:48:07.994Z,4.25
2019-05-25T16:53:24.684Z,4.30
2019-05-25T16:58:44.809Z,3.58
2019-05-25T17:04:06.861Z,3.52
2019-05-25T17:09:39.067Z,3.67
2019-05-25T17:15:00.771Z,4.25
2019-05-25T17:20:18.413Z,4.05
2019-05-25T17:25:36.268Z,3.95
2019-05-25T17:31:02.731Z,3.85
2019-05-25T17:36:19.408Z,3.87
2019-05-25T17:42:03.012Z,3.60
2019-05-25T17:47:13.137Z,3.60
2019-05-25T17:52:46.050Z,4.70
2019-05-25T17:58:07.760Z,4.33
2019-05-25T18:03:31.125Z,3.77
2019-05-25T18:09:03.025Z,4.22
2019-05-25T18:14:16.609Z,4.37
2019-05-25T18:19:33.763Z,3.70
2019-05-25T18:24:47.244Z,4.22
2019-05-25T18:30:11.756Z,4.15
2019-05-25T18:35:32.606Z,3.98
2019-05-25T18:40:50.877Z,5.08
2019-05-25T18:46:09.569Z,4.20
2019-05-25T18:51:31.845Z,4.40
2019-05-25T18:57:14.526Z,4.67
2019-05-25T19:02:37.985Z,4.22
2019-05-25T19:08:14.857Z,4.85
2019-05-25T19:13:48.726Z,4.92
2019-05-25T19:19:18.618Z,5.25
2019-05-25T19:24:31.931Z,4.95
2019-05-25T19:30:03.241Z,4.85
2019-05-25T19:35:19.884Z,4.92
2019-05-25T19:40:34.606Z,4.95
2019-05-25T19:46:17.404Z,4.80
2019-05-25T19:51:34.975Z,4.30
2019-05-25T19:57:08.329Z,3.25
2019-05-25T20:02:44.055Z,3.65
2019-05-25T20:08:02.596Z,4.60
2019-05-25T20:13:32.285Z,4.80
2019-05-25T20:18:50.742Z,5.50
2019-05-25T20:24:08.966Z,5.75
2019-05-25T20:29:33.961Z,5.00
2019-05-25T20:34:54.983Z,5.58
2019-05-25T20:40:16.085Z,5.03
2019-05-25T20:45:37.199Z,5.22
2019-05-25T20:50:53.370Z,4.90
2019-05-25T20:56:07.812Z,6.50
2019-05-25T21:01:31.773Z,5.50
2019-05-25T21:06:39.023Z,5.05
2019-05-25T21:11:44.996Z,5.53
2019-05-25T21:16:50.742Z,5.37
2019-05-25T21:21:57.839Z,5.40
2019-05-25T21:27:03.479Z,5.45
2019-05-25T21:32:09.722Z,5.42
2019-05-25T21:37:15.965Z,5.40
2019-05-25T21:42:22.682Z,5.78
2019-05-25T21:47:37.490Z,6.35
2019-05-25T21:52:55.667Z,6.40
2019-05-25T21:58:31.320Z,6.70
2019-05-25T22:03:46.953Z,6.10
2019-05-25T22:09:10.487Z,7.25
2019-05-25T22:14:18.127Z,6.85
2019-05-25T22:19:23.906Z,6.92
2019-05-25T22:24:29.636Z,7.10
2019-05-25T22:29:35.789Z,8.33
2019-05-25T22:34:42.091Z,7.33
2019-05-25T22:39:47.553Z,7.42
2019-05-25T22:44:55.172Z,7.50
2019-05-25T22:50:04.881Z,7.12
2019-05-25T22:55:10.967Z,8.55
2019-05-25T23:00:17.211Z,9.90
2019-05-25T23:05:22.712Z,9.43
2019-05-25T23:10:30.367Z,8.53
2019-05-25T23:15:36.976Z,9.83
2019-05-25T23:20:43.678Z,8.68
2019-05-25T23:25:50.020Z,8.68
2019-05-25T23:30:56.832Z,8.30
2019-05-25T23:36:03.317Z,9.55
2019-05-25T23:41:10.455Z,9.45
2019-05-25T23:46:17.822Z,10.00
2019-05-25T23:51:24.338Z,8.75
2019-05-25T23:56:32.911Z,9.65
